sensor_id;sensor_type;location;lat;lon;timestamp;P1;durP1;ratioP1;P2;durP2;ratioP2
8683;SDS011;4379;59.744;18.206;2023-12-07T00:02:06;2.90;;;2.70;;
8683;SDS011;4379;59.744;18.206;2023-12-07T00:04:34;3.10;;;2.80;;
8683;SDS011;4379;59.744;18.206;2023-12-07T00:07:01;3.43;;;3.20;;
8683;SDS011;4379;59.744;18.206;2023-12-07T00:09:28;3.30;;;3.00;;
8683;SDS011;4379;59.744;18.206;2023-12-07T00:11:55;3.10;;;2.90;;
8683;SDS011;4379;59.744;18.206;2023-12-07T00:14:22;3.23;;;2.93;;
8683;SDS011;4379;59.744;18.206;2023-12-07T00:16:50;3.10;;;2.80;;
8683;SDS011;4379;59.744;18.206;2023-12-07T00:19:17;2.90;;;2.70;;
8683;SDS011;4379;59.744;18.206;2023-12-07T00:21:44;2.77;;;2.57;;
8683;SDS011;4379;59.744;18.206;2023-12-07T00:24:11;3.97;;;3.10;;
8683;SDS011;4379;59.744;18.206;2023-12-07T00:26:38;2.97;;;2.77;;
8683;SDS011;4379;59.744;18.206;2023-12-07T00:29:05;3.10;;;2.90;;
8683;SDS011;4379;59.744;18.206;2023-12-07T00:31:32;2.90;;;2.70;;
8683;SDS011;4379;59.744;18.206;2023-12-07T00:34:01;3.35;;;3.15;;
8683;SDS011;4379;59.744;18.206;2023-12-07T00:36:27;3.20;;;3.00;;
8683;SDS011;4379;59.744;18.206;2023-12-07T00:38:54;3.00;;;2.80;;
8683;SDS011;4379;59.744;18.206;2023-12-07T00:41:22;3.20;;;3.00;;
8683;SDS011;4379;59.744;18.206;2023-12-07T00:43:49;4.27;;;3.23;;
8683;SDS011;4379;59.744;18.206;2023-12-07T00:46:16;3.00;;;2.80;;
8683;SDS011;4379;59.744;18.206;2023-12-07T00:48:43;3.10;;;2.90;;
8683;SDS011;4379;59.744;18.206;2023-12-07T00:51:10;2.93;;;2.73;;
8683;SDS011;4379;59.744;18.206;2023-12-07T00:53:38;3.30;;;3.00;;
8683;SDS011;4379;59.744;18.206;2023-12-07T00:56:05;3.33;;;3.07;;
8683;SDS011;4379;59.744;18.206;2023-12-07T00:58:33;2.93;;;2.73;;
8683;SDS011;4379;59.744;18.206;2023-12-07T01:01:00;3.60;;;3.10;;
8683;SDS011;4379;59.744;18.206;2023-12-07T01:03:27;3.33;;;3.03;;
8683;SDS011;4379;59.744;18.206;2023-12-07T01:05:55;2.97;;;2.77;;
8683;SDS011;4379;59.744;18.206;2023-12-07T01:08:22;3.03;;;2.83;;
8683;SDS011;4379;59.744;18.206;2023-12-07T01:10:49;3.57;;;2.87;;
8683;SDS011;4379;59.744;18.206;2023-12-07T01:13:16;2.87;;;2.67;;
8683;SDS011;4379;59.744;18.206;2023-12-07T01:15:43;3.20;;;2.90;;
8683;SDS011;4379;59.744;18.206;2023-12-07T01:18:10;3.03;;;2.83;;
8683;SDS011;4379;59.744;18.206;2023-12-07T01:20:38;3.10;;;2.90;;
8683;SDS011;4379;59.744;18.206;2023-12-07T01:23:05;3.00;;;2.80;;
8683;SDS011;4379;59.744;18.206;2023-12-07T01:25:32;2.80;;;2.60;;
8683;SDS011;4379;59.744;18.206;2023-12-07T01:27:59;3.10;;;2.80;;
8683;SDS011;4379;59.744;18.206;2023-12-07T01:30:26;3.03;;;2.57;;
8683;SDS011;4379;59.744;18.206;2023-12-07T01:32:54;2.73;;;2.53;;
8683;SDS011;4379;59.744;18.206;2023-12-07T01:35:22;2.57;;;2.40;;
8683;SDS011;4379;59.744;18.206;2023-12-07T01:37:49;2.73;;;2.53;;
8683;SDS011;4379;59.744;18.206;2023-12-07T01:40:16;3.07;;;2.77;;
8683;SDS011;4379;59.744;18.206;2023-12-07T01:42:50;2.53;;;2.33;;
8683;SDS011;4379;59.744;18.206;2023-12-07T01:45:19;2.80;;;2.60;;
8683;SDS011;4379;59.744;18.206;2023-12-07T01:47:47;2.50;;;2.33;;
8683;SDS011;4379;59.744;18.206;2023-12-07T01:50:18;2.50;;;2.30;;
8683;SDS011;4379;59.744;18.206;2023-12-07T01:52:52;2.73;;;2.53;;
8683;SDS011;4379;59.744;18.206;2023-12-07T01:55:23;2.90;;;2.60;;
8683;SDS011;4379;59.744;18.206;2023-12-07T01:57:51;2.73;;;2.53;;
8683;SDS011;4379;59.744;18.206;2023-12-07T02:00:18;3.00;;;2.70;;
8683;SDS011;4379;59.744;18.206;2023-12-07T02:02:46;2.90;;;2.70;;
8683;SDS011;4379;59.744;18.206;2023-12-07T02:05:15;2.77;;;2.53;;
8683;SDS011;4379;59.744;18.206;2023-12-07T02:07:43;2.93;;;2.73;;
8683;SDS011;4379;59.744;18.206;2023-12-07T02:10:10;3.07;;;2.80;;
8683;SDS011;4379;59.744;18.206;2023-12-07T02:12:40;2.93;;;2.63;;
8683;SDS011;4379;59.744;18.206;2023-12-07T02:15:07;3.13;;;2.83;;
8683;SDS011;4379;59.744;18.206;2023-12-07T02:17:35;3.07;;;2.83;;
8683;SDS011;4379;59.744;18.206;2023-12-07T02:22:55;3.30;;;2.97;;
8683;SDS011;4379;59.744;18.206;2023-12-07T02:25:29;3.43;;;3.13;;
8683;SDS011;4379;59.744;18.206;2023-12-07T02:28:29;3.10;;;2.90;;
8683;SDS011;4379;59.744;18.206;2023-12-07T02:30:56;4.00;;;3.00;;
8683;SDS011;4379;59.744;18.206;2023-12-07T02:33:23;3.10;;;2.90;;
8683;SDS011;4379;59.744;18.206;2023-12-07T02:35:50;2.90;;;2.70;;
8683;SDS011;4379;59.744;18.206;2023-12-07T02:38:17;3.80;;;3.00;;
8683;SDS011;4379;59.744;18.206;2023-12-07T02:40:46;3.03;;;2.83;;
8683;SDS011;4379;59.744;18.206;2023-12-07T02:43:15;3.37;;;3.07;;
8683;SDS011;4379;59.744;18.206;2023-12-07T02:45:42;3.47;;;3.20;;
8683;SDS011;4379;59.744;18.206;2023-12-07T02:48:09;3.40;;;3.20;;
8683;SDS011;4379;59.744;18.206;2023-12-07T02:50:37;3.27;;;3.07;;
8683;SDS011;4379;59.744;18.206;2023-12-07T02:53:04;3.20;;;3.00;;
8683;SDS011;4379;59.744;18.206;2023-12-07T02:55:31;3.30;;;3.10;;
8683;SDS011;4379;59.744;18.206;2023-12-07T02:57:59;3.50;;;3.20;;
8683;SDS011;4379;59.744;18.206;2023-12-07T03:00:26;3.83;;;3.53;;
8683;SDS011;4379;59.744;18.206;2023-12-07T03:02:53;3.53;;;3.23;;
8683;SDS011;4379;59.744;18.206;2023-12-07T03:05:20;3.40;;;3.03;;
8683;SDS011;4379;59.744;18.206;2023-12-07T03:07:49;3.47;;;3.27;;
8683;SDS011;4379;59.744;18.206;2023-12-07T03:10:16;3.17;;;2.97;;
8683;SDS011;4379;59.744;18.206;2023-12-07T03:12:43;3.20;;;2.97;;
8683;SDS011;4379;59.744;18.206;2023-12-07T03:15:10;3.30;;;3.10;;
8683;SDS011;4379;59.744;18.206;2023-12-07T03:17:39;3.60;;;3.30;;
8683;SDS011;4379;59.744;18.206;2023-12-07T03:20:07;4.03;;;3.03;;
8683;SDS011;4379;59.744;18.206;2023-12-07T03:22:34;3.30;;;3.10;;
8683;SDS011;4379;59.744;18.206;2023-12-07T03:25:03;3.33;;;3.13;;
8683;SDS011;4379;59.744;18.206;2023-12-07T03:27:30;3.23;;;2.97;;
8683;SDS011;4379;59.744;18.206;2023-12-07T03:29:57;3.47;;;3.17;;
8683;SDS011;4379;59.744;18.206;2023-12-07T03:32:24;3.17;;;2.97;;
8683;SDS011;4379;59.744;18.206;2023-12-07T03:34:52;2.77;;;2.57;;
8683;SDS011;4379;59.744;18.206;2023-12-07T03:37:19;3.17;;;2.97;;
8683;SDS011;4379;59.744;18.206;2023-12-07T03:39:46;3.40;;;3.10;;
8683;SDS011;4379;59.744;18.206;2023-12-07T03:42:13;3.13;;;2.87;;
8683;SDS011;4379;59.744;18.206;2023-12-07T03:45:00;3.30;;;3.00;;
8683;SDS011;4379;59.744;18.206;2023-12-07T03:47:27;3.17;;;2.97;;
8683;SDS011;4379;59.744;18.206;2023-12-07T03:49:54;3.30;;;3.10;;
8683;SDS011;4379;59.744;18.206;2023-12-07T03:52:21;3.20;;;3.00;;
8683;SDS011;4379;59.744;18.206;2023-12-07T03:54:49;3.60;;;3.30;;
8683;SDS011;4379;59.744;18.206;2023-12-07T03:57:16;3.13;;;2.93;;
8683;SDS011;4379;59.744;18.206;2023-12-07T03:59:43;3.03;;;2.83;;
8683;SDS011;4379;59.744;18.206;2023-12-07T04:02:12;3.50;;;3.20;;
8683;SDS011;4379;59.744;18.206;2023-12-07T04:04:39;3.20;;;3.00;;
8683;SDS011;4379;59.744;18.206;2023-12-07T04:07:06;3.10;;;2.90;;
8683;SDS011;4379;59.744;18.206;2023-12-07T04:09:33;3.13;;;2.93;;
8683;SDS011;4379;59.744;18.206;2023-12-07T04:12:01;3.27;;;3.07;;
8683;SDS011;4379;59.744;18.206;2023-12-07T04:14:28;3.37;;;3.07;;
8683;SDS011;4379;59.744;18.206;2023-12-07T04:16:55;3.30;;;3.10;;
8683;SDS011;4379;59.744;18.206;2023-12-07T04:19:22;3.20;;;2.90;;
8683;SDS011;4379;59.744;18.206;2023-12-07T04:21:49;3.40;;;3.20;;
8683;SDS011;4379;59.744;18.206;2023-12-07T04:24:16;3.10;;;2.90;;
8683;SDS011;4379;59.744;18.206;2023-12-07T04:26:43;3.00;;;2.80;;
8683;SDS011;4379;59.744;18.206;2023-12-07T04:29:10;3.30;;;3.10;;
8683;SDS011;4379;59.744;18.206;2023-12-07T04:31:37;2.93;;;2.73;;
8683;SDS011;4379;59.744;18.206;2023-12-07T04:34:04;3.60;;;3.40;;
8683;SDS011;4379;59.744;18.206;2023-12-07T04:36:32;3.30;;;3.10;;
8683;SDS011;4379;59.744;18.206;2023-12-07T04:38:59;3.30;;;3.10;;
8683;SDS011;4379;59.744;18.206;2023-12-07T04:41:26;3.17;;;2.97;;
8683;SDS011;4379;59.744;18.206;2023-12-07T04:43:53;3.60;;;3.40;;
8683;SDS011;4379;59.744;18.206;2023-12-07T04:46:20;3.43;;;3.10;;
8683;SDS011;4379;59.744;18.206;2023-12-07T04:48:47;3.60;;;3.30;;
8683;SDS011;4379;59.744;18.206;2023-12-07T04:51:14;3.20;;;3.00;;
8683;SDS011;4379;59.744;18.206;2023-12-07T04:53:42;3.87;;;3.47;;
8683;SDS011;4379;59.744;18.206;2023-12-07T04:56:09;3.03;;;2.83;;
8683;SDS011;4379;59.744;18.206;2023-12-07T04:58:36;3.23;;;3.03;;
8683;SDS011;4379;59.744;18.206;2023-12-07T05:01:03;3.50;;;3.20;;
8683;SDS011;4379;59.744;18.206;2023-12-07T05:03:31;2.90;;;2.70;;
8683;SDS011;4379;59.744;18.206;2023-12-07T05:05:58;3.80;;;3.50;;
8683;SDS011;4379;59.744;18.206;2023-12-07T05:08:26;3.57;;;3.27;;
8683;SDS011;4379;59.744;18.206;2023-12-07T05:10:53;3.57;;;3.27;;
8683;SDS011;4379;59.744;18.206;2023-12-07T05:13:20;3.70;;;3.40;;
8683;SDS011;4379;59.744;18.206;2023-12-07T05:15:47;3.50;;;3.20;;
8683;SDS011;4379;59.744;18.206;2023-12-07T05:18:14;3.73;;;3.53;;
8683;SDS011;4379;59.744;18.206;2023-12-07T05:20:41;3.77;;;3.53;;
8683;SDS011;4379;59.744;18.206;2023-12-07T05:23:09;4.20;;;3.80;;
8683;SDS011;4379;59.744;18.206;2023-12-07T05:25:36;4.00;;;3.70;;
8683;SDS011;4379;59.744;18.206;2023-12-07T05:28:04;4.60;;;4.17;;
8683;SDS011;4379;59.744;18.206;2023-12-07T05:30:31;4.20;;;3.90;;
8683;SDS011;4379;59.744;18.206;2023-12-07T05:32:58;3.93;;;3.63;;
8683;SDS011;4379;59.744;18.206;2023-12-07T05:35:26;4.30;;;4.00;;
8683;SDS011;4379;59.744;18.206;2023-12-07T05:37:53;4.63;;;4.23;;
8683;SDS011;4379;59.744;18.206;2023-12-07T05:40:20;3.93;;;3.63;;
8683;SDS011;4379;59.744;18.206;2023-12-07T05:42:49;4.17;;;3.87;;
8683;SDS011;4379;59.744;18.206;2023-12-07T05:45:17;4.20;;;3.90;;
8683;SDS011;4379;59.744;18.206;2023-12-07T05:47:44;4.53;;;4.23;;
8683;SDS011;4379;59.744;18.206;2023-12-07T05:50:11;4.37;;;4.03;;
8683;SDS011;4379;59.744;18.206;2023-12-07T05:52:39;4.60;;;4.30;;
8683;SDS011;4379;59.744;18.206;2023-12-07T05:55:06;4.57;;;4.07;;
8683;SDS011;4379;59.744;18.206;2023-12-07T05:57:34;3.93;;;3.63;;
8683;SDS011;4379;59.744;18.206;2023-12-07T06:00:02;5.50;;;3.93;;
8683;SDS011;4379;59.744;18.206;2023-12-07T06:02:32;4.23;;;3.87;;
8683;SDS011;4379;59.744;18.206;2023-12-07T06:04:59;4.00;;;3.70;;
8683;SDS011;4379;59.744;18.206;2023-12-07T06:07:26;4.20;;;3.90;;
8683;SDS011;4379;59.744;18.206;2023-12-07T06:09:53;4.37;;;4.07;;
8683;SDS011;4379;59.744;18.206;2023-12-07T06:12:20;4.13;;;3.77;;
8683;SDS011;4379;59.744;18.206;2023-12-07T06:14:48;4.07;;;3.73;;
8683;SDS011;4379;59.744;18.206;2023-12-07T06:17:16;4.40;;;3.97;;
8683;SDS011;4379;59.744;18.206;2023-12-07T06:19:43;4.97;;;3.93;;
8683;SDS011;4379;59.744;18.206;2023-12-07T06:22:10;4.10;;;3.77;;
8683;SDS011;4379;59.744;18.206;2023-12-07T06:24:40;4.37;;;4.07;;
8683;SDS011;4379;59.744;18.206;2023-12-07T06:27:07;3.70;;;3.40;;
8683;SDS011;4379;59.744;18.206;2023-12-07T06:29:34;4.10;;;3.80;;
8683;SDS011;4379;59.744;18.206;2023-12-07T06:32:01;4.20;;;3.90;;
8683;SDS011;4379;59.744;18.206;2023-12-07T06:34:28;3.80;;;3.50;;
8683;SDS011;4379;59.744;18.206;2023-12-07T06:36:58;3.40;;;3.20;;
8683;SDS011;4379;59.744;18.206;2023-12-07T06:39:26;3.57;;;3.33;;
8683;SDS011;4379;59.744;18.206;2023-12-07T06:41:55;4.00;;;3.70;;
8683;SDS011;4379;59.744;18.206;2023-12-07T06:44:23;5.47;;;3.67;;
8683;SDS011;4379;59.744;18.206;2023-12-07T06:46:50;3.83;;;3.53;;
8683;SDS011;4379;59.744;18.206;2023-12-07T06:49:17;3.80;;;3.50;;
8683;SDS011;4379;59.744;18.206;2023-12-07T06:51:45;3.37;;;3.17;;
8683;SDS011;4379;59.744;18.206;2023-12-07T06:54:12;5.07;;;3.70;;
8683;SDS011;4379;59.744;18.206;2023-12-07T06:56:40;4.17;;;3.87;;
8683;SDS011;4379;59.744;18.206;2023-12-07T06:59:07;3.93;;;3.73;;
8683;SDS011;4379;59.744;18.206;2023-12-07T07:01:34;4.43;;;3.77;;
8683;SDS011;4379;59.744;18.206;2023-12-07T07:04:01;3.70;;;3.50;;
8683;SDS011;4379;59.744;18.206;2023-12-07T07:06:28;4.60;;;4.30;;
8683;SDS011;4379;59.744;18.206;2023-12-07T07:08:57;3.63;;;3.33;;
8683;SDS011;4379;59.744;18.206;2023-12-07T07:11:26;4.07;;;3.63;;
8683;SDS011;4379;59.744;18.206;2023-12-07T07:13:55;3.93;;;3.63;;
8683;SDS011;4379;59.744;18.206;2023-12-07T07:16:22;3.93;;;3.63;;
8683;SDS011;4379;59.744;18.206;2023-12-07T07:18:49;3.60;;;3.30;;
8683;SDS011;4379;59.744;18.206;2023-12-07T07:21:16;3.43;;;3.13;;
8683;SDS011;4379;59.744;18.206;2023-12-07T07:23:43;3.60;;;3.30;;
8683;SDS011;4379;59.744;18.206;2023-12-07T07:26:10;3.50;;;3.30;;
8683;SDS011;4379;59.744;18.206;2023-12-07T07:28:37;3.40;;;3.20;;
8683;SDS011;4379;59.744;18.206;2023-12-07T07:31:04;3.80;;;3.50;;
8683;SDS011;4379;59.744;18.206;2023-12-07T07:33:31;3.90;;;3.63;;
8683;SDS011;4379;59.744;18.206;2023-12-07T07:35:59;3.50;;;3.20;;
8683;SDS011;4379;59.744;18.206;2023-12-07T07:38:27;4.27;;;3.87;;
8683;SDS011;4379;59.744;18.206;2023-12-07T07:40:54;4.00;;;3.70;;
8683;SDS011;4379;59.744;18.206;2023-12-07T07:43:21;4.03;;;3.70;;
8683;SDS011;4379;59.744;18.206;2023-12-07T07:45:48;3.40;;;3.10;;
8683;SDS011;4379;59.744;18.206;2023-12-07T07:48:15;4.17;;;3.73;;
8683;SDS011;4379;59.744;18.206;2023-12-07T07:50:42;4.03;;;3.73;;
8683;SDS011;4379;59.744;18.206;2023-12-07T07:53:10;4.00;;;3.70;;
8683;SDS011;4379;59.744;18.206;2023-12-07T07:55:37;3.83;;;3.57;;
8683;SDS011;4379;59.744;18.206;2023-12-07T07:58:04;3.80;;;3.50;;
8683;SDS011;4379;59.744;18.206;2023-12-07T08:00:31;3.60;;;3.30;;
8683;SDS011;4379;59.744;18.206;2023-12-07T08:02:59;3.50;;;3.30;;
8683;SDS011;4379;59.744;18.206;2023-12-07T08:05:26;3.43;;;3.23;;
8683;SDS011;4379;59.744;18.206;2023-12-07T08:07:53;4.57;;;3.37;;
8683;SDS011;4379;59.744;18.206;2023-12-07T08:10:20;3.87;;;3.57;;
8683;SDS011;4379;59.744;18.206;2023-12-07T08:12:48;3.70;;;3.40;;
8683;SDS011;4379;59.744;18.206;2023-12-07T08:15:15;3.70;;;3.40;;
8683;SDS011;4379;59.744;18.206;2023-12-07T08:17:42;3.63;;;3.33;;
8683;SDS011;4379;59.744;18.206;2023-12-07T08:20:09;3.70;;;3.50;;
8683;SDS011;4379;59.744;18.206;2023-12-07T08:22:37;4.13;;;3.83;;
8683;SDS011;4379;59.744;18.206;2023-12-07T08:25:05;4.40;;;4.00;;
8683;SDS011;4379;59.744;18.206;2023-12-07T08:27:37;3.57;;;3.37;;
8683;SDS011;4379;59.744;18.206;2023-12-07T08:30:05;3.77;;;3.47;;
8683;SDS011;4379;59.744;18.206;2023-12-07T08:32:35;3.57;;;3.37;;
8683;SDS011;4379;59.744;18.206;2023-12-07T08:35:03;4.10;;;3.80;;
8683;SDS011;4379;59.744;18.206;2023-12-07T08:37:32;3.93;;;3.63;;
8683;SDS011;4379;59.744;18.206;2023-12-07T08:39:59;3.57;;;3.37;;
8683;SDS011;4379;59.744;18.206;2023-12-07T08:42:27;3.47;;;3.27;;
8683;SDS011;4379;59.744;18.206;2023-12-07T08:44:54;3.23;;;3.03;;
8683;SDS011;4379;59.744;18.206;2023-12-07T08:47:21;3.97;;;3.67;;
8683;SDS011;4379;59.744;18.206;2023-12-07T08:49:48;3.20;;;3.00;;
8683;SDS011;4379;59.744;18.206;2023-12-07T08:52:17;3.90;;;3.60;;
8683;SDS011;4379;59.744;18.206;2023-12-07T08:55:01;3.47;;;3.20;;
8683;SDS011;4379;59.744;18.206;2023-12-07T08:57:28;4.90;;;3.77;;
8683;SDS011;4379;59.744;18.206;2023-12-07T08:59:55;3.30;;;3.10;;
8683;SDS011;4379;59.744;18.206;2023-12-07T09:02:22;3.50;;;3.30;;
8683;SDS011;4379;59.744;18.206;2023-12-07T09:05:03;3.80;;;3.60;;
8683;SDS011;4379;59.744;18.206;2023-12-07T09:07:31;3.87;;;3.57;;
8683;SDS011;4379;59.744;18.206;2023-12-07T09:09:58;3.57;;;3.33;;
8683;SDS011;4379;59.744;18.206;2023-12-07T09:12:25;3.33;;;3.13;;
8683;SDS011;4379;59.744;18.206;2023-12-07T09:15:03;3.07;;;2.87;;
8683;SDS011;4379;59.744;18.206;2023-12-07T09:17:32;3.83;;;3.53;;
8683;SDS011;4379;59.744;18.206;2023-12-07T09:20:00;3.57;;;3.37;;
8683;SDS011;4379;59.744;18.206;2023-12-07T09:22:27;3.37;;;3.17;;
8683;SDS011;4379;59.744;18.206;2023-12-07T09:25:03;3.80;;;3.50;;
8683;SDS011;4379;59.744;18.206;2023-12-07T09:27:31;4.13;;;3.83;;
8683;SDS011;4379;59.744;18.206;2023-12-07T09:30:00;3.80;;;3.50;;
8683;SDS011;4379;59.744;18.206;2023-12-07T09:32:28;3.73;;;3.50;;
8683;SDS011;4379;59.744;18.206;2023-12-07T09:35:03;3.77;;;3.50;;
8683;SDS011;4379;59.744;18.206;2023-12-07T09:37:31;3.40;;;3.10;;
8683;SDS011;4379;59.744;18.206;2023-12-07T09:39:59;3.50;;;3.30;;
8683;SDS011;4379;59.744;18.206;2023-12-07T09:42:28;3.33;;;3.13;;
8683;SDS011;4379;59.744;18.206;2023-12-07T09:45:02;3.20;;;3.00;;
8683;SDS011;4379;59.744;18.206;2023-12-07T09:47:31;3.90;;;3.63;;
8683;SDS011;4379;59.744;18.206;2023-12-07T09:50:07;3.27;;;3.07;;
8683;SDS011;4379;59.744;18.206;2023-12-07T09:52:38;3.30;;;3.10;;
8683;SDS011;4379;59.744;18.206;2023-12-07T09:55:11;4.07;;;3.03;;
8683;SDS011;4379;59.744;18.206;2023-12-07T09:57:39;3.13;;;2.97;;
8683;SDS011;4379;59.744;18.206;2023-12-07T10:00:06;3.40;;;3.20;;
8683;SDS011;4379;59.744;18.206;2023-12-07T10:02:36;3.37;;;3.13;;
8683;SDS011;4379;59.744;18.206;2023-12-07T10:05:08;3.87;;;3.63;;
8683;SDS011;4379;59.744;18.206;2023-12-07T10:07:39;3.97;;;3.67;;
8683;SDS011;4379;59.744;18.206;2023-12-07T10:10:07;3.70;;;3.50;;
8683;SDS011;4379;59.744;18.206;2023-12-07T10:12:43;3.47;;;3.20;;
8683;SDS011;4379;59.744;18.206;2023-12-07T10:15:16;3.20;;;3.00;;
8683;SDS011;4379;59.744;18.206;2023-12-07T10:17:52;3.77;;;3.57;;
8683;SDS011;4379;59.744;18.206;2023-12-07T10:20:21;3.97;;;3.67;;
8683;SDS011;4379;59.744;18.206;2023-12-07T10:23:03;3.60;;;3.40;;
8683;SDS011;4379;59.744;18.206;2023-12-07T10:25:33;3.43;;;3.23;;
8683;SDS011;4379;59.744;18.206;2023-12-07T10:28:04;3.37;;;3.17;;
8683;SDS011;4379;59.744;18.206;2023-12-07T10:30:35;3.50;;;3.30;;
8683;SDS011;4379;59.744;18.206;2023-12-07T10:33:06;3.77;;;3.57;;
8683;SDS011;4379;59.744;18.206;2023-12-07T10:35:41;3.77;;;3.40;;
8683;SDS011;4379;59.744;18.206;2023-12-07T10:38:10;3.20;;;3.00;;
8683;SDS011;4379;59.744;18.206;2023-12-07T10:40:38;3.70;;;3.40;;
8683;SDS011;4379;59.744;18.206;2023-12-07T10:43:06;3.63;;;3.43;;
8683;SDS011;4379;59.744;18.206;2023-12-07T10:45:35;3.00;;;2.80;;
8683;SDS011;4379;59.744;18.206;2023-12-07T10:48:06;3.47;;;3.27;;
8683;SDS011;4379;59.744;18.206;2023-12-07T10:50:36;4.00;;;3.70;;
8683;SDS011;4379;59.744;18.206;2023-12-07T10:53:10;3.50;;;3.30;;
8683;SDS011;4379;59.744;18.206;2023-12-07T10:56:00;3.33;;;3.13;;
8683;SDS011;4379;59.744;18.206;2023-12-07T10:58:27;3.50;;;3.20;;
8683;SDS011;4379;59.744;18.206;2023-12-07T11:00:55;3.53;;;3.33;;
8683;SDS011;4379;59.744;18.206;2023-12-07T11:03:24;3.53;;;3.33;;
8683;SDS011;4379;59.744;18.206;2023-12-07T11:05:52;3.80;;;3.50;;
8683;SDS011;4379;59.744;18.206;2023-12-07T11:08:26;3.33;;;3.13;;
8683;SDS011;4379;59.744;18.206;2023-12-07T11:13:33;3.23;;;3.03;;
8683;SDS011;4379;59.744;18.206;2023-12-07T11:16:03;3.67;;;3.47;;
8683;SDS011;4379;59.744;18.206;2023-12-07T11:18:31;3.77;;;3.50;;
8683;SDS011;4379;59.744;18.206;2023-12-07T11:20:59;3.60;;;3.30;;
8683;SDS011;4379;59.744;18.206;2023-12-07T11:23:27;3.73;;;3.40;;
8683;SDS011;4379;59.744;18.206;2023-12-07T11:25:55;3.70;;;3.40;;
8683;SDS011;4379;59.744;18.206;2023-12-07T11:28:36;3.00;;;2.80;;
8683;SDS011;4379;59.744;18.206;2023-12-07T11:31:08;3.33;;;3.13;;
8683;SDS011;4379;59.744;18.206;2023-12-07T11:33:38;3.60;;;3.40;;
8683;SDS011;4379;59.744;18.206;2023-12-07T11:36:09;3.50;;;3.30;;
8683;SDS011;4379;59.744;18.206;2023-12-07T11:39:15;3.70;;;3.40;;
8683;SDS011;4379;59.744;18.206;2023-12-07T11:41:49;3.87;;;3.60;;
8683;SDS011;4379;59.744;18.206;2023-12-07T11:44:20;3.47;;;3.17;;
8683;SDS011;4379;59.744;18.206;2023-12-07T11:46:51;3.87;;;3.57;;
8683;SDS011;4379;59.744;18.206;2023-12-07T11:49:18;4.17;;;3.87;;
8683;SDS011;4379;59.744;18.206;2023-12-07T11:52:01;4.13;;;3.87;;
8683;SDS011;4379;59.744;18.206;2023-12-07T11:54:46;3.53;;;3.33;;
8683;SDS011;4379;59.744;18.206;2023-12-07T11:57:14;4.13;;;3.80;;
8683;SDS011;4379;59.744;18.206;2023-12-07T11:59:45;3.93;;;3.63;;
8683;SDS011;4379;59.744;18.206;2023-12-07T12:02:15;4.03;;;3.73;;
8683;SDS011;4379;59.744;18.206;2023-12-07T12:04:42;4.03;;;3.73;;
8683;SDS011;4379;59.744;18.206;2023-12-07T12:07:10;4.50;;;4.10;;
8683;SDS011;4379;59.744;18.206;2023-12-07T12:09:38;4.20;;;3.80;;
8683;SDS011;4379;59.744;18.206;2023-12-07T12:12:06;4.70;;;4.40;;
8683;SDS011;4379;59.744;18.206;2023-12-07T12:14:33;4.50;;;4.17;;
8683;SDS011;4379;59.744;18.206;2023-12-07T12:17:01;4.03;;;3.83;;
8683;SDS011;4379;59.744;18.206;2023-12-07T12:19:28;4.63;;;4.33;;
8683;SDS011;4379;59.744;18.206;2023-12-07T12:22:03;4.37;;;4.07;;
8683;SDS011;4379;59.744;18.206;2023-12-07T12:24:34;4.43;;;4.13;;
8683;SDS011;4379;59.744;18.206;2023-12-07T12:27:03;4.87;;;4.57;;
8683;SDS011;4379;59.744;18.206;2023-12-07T12:29:32;4.27;;;3.97;;
8683;SDS011;4379;59.744;18.206;2023-12-07T12:32:01;4.07;;;3.77;;
8683;SDS011;4379;59.744;18.206;2023-12-07T12:34:32;4.67;;;4.37;;
8683;SDS011;4379;59.744;18.206;2023-12-07T12:37:00;4.30;;;4.00;;
8683;SDS011;4379;59.744;18.206;2023-12-07T12:39:28;4.40;;;4.00;;
8683;SDS011;4379;59.744;18.206;2023-12-07T12:42:00;4.17;;;3.93;;
8683;SDS011;4379;59.744;18.206;2023-12-07T12:44:30;3.90;;;3.60;;
8683;SDS011;4379;59.744;18.206;2023-12-07T12:47:07;4.43;;;4.10;;
8683;SDS011;4379;59.744;18.206;2023-12-07T12:49:38;3.77;;;3.57;;
8683;SDS011;4379;59.744;18.206;2023-12-07T12:52:10;3.90;;;3.70;;
8683;SDS011;4379;59.744;18.206;2023-12-07T12:54:39;4.10;;;3.90;;
8683;SDS011;4379;59.744;18.206;2023-12-07T12:57:09;4.20;;;3.90;;
8683;SDS011;4379;59.744;18.206;2023-12-07T12:59:36;3.77;;;3.57;;
8683;SDS011;4379;59.744;18.206;2023-12-07T13:02:04;4.00;;;3.80;;
8683;SDS011;4379;59.744;18.206;2023-12-07T13:04:31;3.70;;;3.50;;
8683;SDS011;4379;59.744;18.206;2023-12-07T13:07:03;3.80;;;3.60;;
8683;SDS011;4379;59.744;18.206;2023-12-07T13:09:31;4.57;;;4.07;;
8683;SDS011;4379;59.744;18.206;2023-12-07T13:11:58;4.10;;;3.80;;
8683;SDS011;4379;59.744;18.206;2023-12-07T13:14:30;4.53;;;4.23;;
8683;SDS011;4379;59.744;18.206;2023-12-07T13:16:59;4.50;;;4.20;;
8683;SDS011;4379;59.744;18.206;2023-12-07T13:19:26;4.60;;;4.30;;
8683;SDS011;4379;59.744;18.206;2023-12-07T13:21:53;4.13;;;3.93;;
8683;SDS011;4379;59.744;18.206;2023-12-07T13:24:20;4.10;;;3.90;;
8683;SDS011;4379;59.744;18.206;2023-12-07T13:26:47;4.50;;;4.20;;
8683;SDS011;4379;59.744;18.206;2023-12-07T13:29:14;4.23;;;3.90;;
8683;SDS011;4379;59.744;18.206;2023-12-07T13:31:54;5.77;;;4.20;;
8683;SDS011;4379;59.744;18.206;2023-12-07T13:34:21;4.63;;;4.33;;
8683;SDS011;4379;59.744;18.206;2023-12-07T13:36:49;4.30;;;4.03;;
8683;SDS011;4379;59.744;18.206;2023-12-07T13:39:17;4.17;;;3.87;;
8683;SDS011;4379;59.744;18.206;2023-12-07T13:41:56;4.43;;;4.13;;
8683;SDS011;4379;59.744;18.206;2023-12-07T13:44:24;4.40;;;4.10;;
8683;SDS011;4379;59.744;18.206;2023-12-07T13:46:54;4.73;;;4.43;;
8683;SDS011;4379;59.744;18.206;2023-12-07T13:49:24;5.30;;;4.83;;
8683;SDS011;4379;59.744;18.206;2023-12-07T13:52:02;4.37;;;4.10;;
8683;SDS011;4379;59.744;18.206;2023-12-07T13:54:37;4.33;;;4.13;;
8683;SDS011;4379;59.744;18.206;2023-12-07T13:57:22;5.00;;;4.60;;
8683;SDS011;4379;59.744;18.206;2023-12-07T13:59:53;5.33;;;4.93;;
8683;SDS011;4379;59.744;18.206;2023-12-07T14:02:21;4.90;;;4.60;;
8683;SDS011;4379;59.744;18.206;2023-12-07T14:04:49;5.23;;;4.93;;
8683;SDS011;4379;59.744;18.206;2023-12-07T14:07:17;5.00;;;4.70;;
8683;SDS011;4379;59.744;18.206;2023-12-07T14:09:49;4.83;;;4.50;;
8683;SDS011;4379;59.744;18.206;2023-12-07T14:12:24;4.67;;;4.40;;
8683;SDS011;4379;59.744;18.206;2023-12-07T14:14:56;4.90;;;4.60;;
8683;SDS011;4379;59.744;18.206;2023-12-07T14:17:23;5.10;;;4.70;;
8683;SDS011;4379;59.744;18.206;2023-12-07T14:19:53;5.60;;;5.17;;
8683;SDS011;4379;59.744;18.206;2023-12-07T14:22:35;4.73;;;4.33;;
8683;SDS011;4379;59.744;18.206;2023-12-07T14:25:03;5.00;;;4.60;;
8683;SDS011;4379;59.744;18.206;2023-12-07T14:27:31;5.77;;;5.37;;
8683;SDS011;4379;59.744;18.206;2023-12-07T14:29:58;4.80;;;4.47;;
8683;SDS011;4379;59.744;18.206;2023-12-07T14:32:25;5.97;;;5.57;;
8683;SDS011;4379;59.744;18.206;2023-12-07T14:34:53;5.40;;;4.90;;
8683;SDS011;4379;59.744;18.206;2023-12-07T14:37:21;5.40;;;5.00;;
8683;SDS011;4379;59.744;18.206;2023-12-07T14:39:48;5.40;;;5.07;;
8683;SDS011;4379;59.744;18.206;2023-12-07T14:42:15;5.53;;;5.13;;
8683;SDS011;4379;59.744;18.206;2023-12-07T14:44:42;5.97;;;5.47;;
8683;SDS011;4379;59.744;18.206;2023-12-07T14:47:09;6.37;;;5.17;;
8683;SDS011;4379;59.744;18.206;2023-12-07T14:49:37;5.70;;;5.30;;
8683;SDS011;4379;59.744;18.206;2023-12-07T14:52:04;4.37;;;4.07;;
8683;SDS011;4379;59.744;18.206;2023-12-07T14:54:31;5.47;;;5.17;;
8683;SDS011;4379;59.744;18.206;2023-12-07T14:56:58;5.27;;;4.77;;
8683;SDS011;4379;59.744;18.206;2023-12-07T14:59:27;5.67;;;5.37;;
8683;SDS011;4379;59.744;18.206;2023-12-07T15:01:55;5.53;;;5.13;;
8683;SDS011;4379;59.744;18.206;2023-12-07T15:04:22;5.70;;;5.30;;
8683;SDS011;4379;59.744;18.206;2023-12-07T15:06:59;5.33;;;5.03;;
8683;SDS011;4379;59.744;18.206;2023-12-07T15:09:27;5.30;;;4.90;;
8683;SDS011;4379;59.744;18.206;2023-12-07T15:11:57;5.30;;;4.90;;
8683;SDS011;4379;59.744;18.206;2023-12-07T15:14:25;4.90;;;4.60;;
8683;SDS011;4379;59.744;18.206;2023-12-07T15:17:03;4.37;;;4.10;;